TimeMDT,TemperatureF,Dew PointF,Humidity,Sea Level PressureIn,VisibilityMPH,Wind Direction,Wind SpeedMPH,Gust SpeedMPH,PrecipitationIn,Events,Conditions,WindDirDegrees,DateUTC
12:15 AM,51.6,21.4,31,29.98,10.0,SW,10.4,18.4,N/A,,Clear,230,2013-10-04 06:15:00
12:35 AM,52.0,19.8,28,29.97,10.0,WSW,17.3,23.0,N/A,,Clear,240,2013-10-04 06:35:00
12:55 AM,51.6,19.4,28,29.97,10.0,WSW,15.0,23.0,N/A,,Clear,250,2013-10-04 06:55:00
1:15 AM,51.8,20.5,29,29.97,10.0,WSW,19.6,27.6,N/A,,Clear,250,2013-10-04 07:15:00
1:35 AM,50.4,21.7,33,29.97,10.0,WSW,15.0,20.7,N/A,,Clear,250,2013-10-04 07:35:00
1:55 AM,50.9,21.2,31,29.97,10.0,West,20.7,27.6,N/A,,Clear,260,2013-10-04 07:55:00
2:15 AM,50.2,21.4,32,29.98,10.0,West,19.6,33.4,N/A,,Clear,260,2013-10-04 08:15:00
2:35 AM,49.5,21.7,34,29.97,10.0,WSW,15.0,23.0,N/A,,Clear,250,2013-10-04 08:35:00
2:55 AM,49.1,21.9,34,29.97,10.0,WSW,17.3,25.3,N/A,,Clear,250,2013-10-04 08:55:00
3:15 AM,48.4,22.5,36,29.97,10.0,West,15.0,-,N/A,,Clear,260,2013-10-04 09:15:00
3:35 AM,46.9,23.0,39,29.97,10.0,WSW,9.2,-,N/A,,Clear,240,2013-10-04 09:35:00
3:55 AM,47.1,22.1,37,29.97,10.0,WSW,4.6,-,N/A,,Clear,250,2013-10-04 09:55:00
4:15 AM,46.8,22.8,39,29.97,10.0,SW,5.8,-,N/A,,Clear,230,2013-10-04 10:15:00
4:35 AM,45.9,23.7,42,29.97,10.0,West,16.1,25.3,N/A,,Clear,260,2013-10-04 10:35:00
4:55 AM,45.7,23.2,41,29.97,10.0,WSW,18.4,25.3,N/A,,Clear,240,2013-10-04 10:55:00
5:15 AM,44.4,23.7,44,29.99,10.0,WSW,16.1,21.9,N/A,,Clear,240,2013-10-04 11:15:00
5:35 AM,43.5,25.0,48,29.99,10.0,WSW,11.5,20.7,N/A,,Clear,240,2013-10-04 11:35:00
5:55 AM,43.0,26.1,51,30.00,10.0,WSW,12.7,25.3,N/A,,Scattered Clouds,240,2013-10-04 11:55:00
6:35 AM,42.1,27.1,55,30.02,10.0,WSW,9.2,-,N/A,,Overcast,240,2013-10-04 12:35:00
6:55 AM,40.6,25.9,56,30.02,10.0,SW,19.6,28.8,N/A,,Overcast,230,2013-10-04 12:55:00
7:15 AM,39.4,24.8,56,30.01,10.0,West,11.5,26.5,N/A,,Scattered Clouds,260,2013-10-04 13:15:00
7:35 AM,39.2,24.3,55,30.01,10.0,West,19.6,27.6,N/A,,Clear,260,2013-10-04 13:35:00
7:55 AM,39.2,22.8,52,30.03,10.0,West,11.5,23.0,N/A,,Clear,260,2013-10-04 13:55:00
8:15 AM,38.3,21.7,51,30.03,10.0,West,20.7,28.8,N/A,,Clear,270,2013-10-04 14:15:00
8:35 AM,39.2,21.9,50,30.03,10.0,West,12.7,24.2,N/A,,Clear,270,2013-10-04 14:35:00
8:55 AM,41.0,20.3,44,30.03,10.0,West,13.8,18.4,N/A,,Clear,280,2013-10-04 14:55:00
9:15 AM,42.8,19.2,39,30.03,10.0,West,16.1,23.0,N/A,,Clear,270,2013-10-04 15:15:00
9:35 AM,42.4,17.1,36,30.05,10.0,West,13.8,27.6,N/A,,Clear,280,2013-10-04 15:35:00
9:55 AM,44.2,16.2,32,30.05,10.0,West,9.2,25.3,N/A,,Clear,260,2013-10-04 15:55:00
10:15 AM,44.6,12.4,27,30.06,10.0,WSW,12.7,26.5,N/A,,Clear,250,2013-10-04 16:15:00
10:35 AM,44.4,13.6,29,30.07,10.0,West,17.3,28.8,N/A,,Clear,270,2013-10-04 16:35:00
10:55 AM,45.1,11.7,26,30.07,10.0,West,12.7,23.0,N/A,,Clear,270,2013-10-04 16:55:00
11:15 AM,45.7,10.0,24,30.08,10.0,West,15.0,26.5,N/A,,Clear,260,2013-10-04 17:15:00
11:35 AM,46.4,9.3,22,30.08,10.0,WSW,16.1,26.5,N/A,,Clear,250,2013-10-04 17:35:00
11:55 AM,47.5,8.6,21,30.09,10.0,SW,15.0,25.3,N/A,,Clear,220,2013-10-04 17:55:00
12:15 PM,47.7,7.9,20,30.10,10.0,West,18.4,25.3,N/A,,Clear,260,2013-10-04 18:15:00
12:35 PM,48.0,9.9,21,30.09,10.0,West,19.6,28.8,N/A,,Clear,270,2013-10-04 18:35:00
12:55 PM,48.6,11.3,22,30.08,10.0,West,13.8,28.8,N/A,,Clear,260,2013-10-04 18:55:00
1:15 PM,48.6,10.2,21,30.08,10.0,West,19.6,32.2,N/A,,Clear,260,2013-10-04 19:15:00
1:35 PM,49.3,10.4,21,30.08,10.0,WSW,15.0,33.4,N/A,,Clear,250,2013-10-04 19:35:00
1:55 PM,48.9,8.2,19,30.08,10.0,West,15.0,33.4,N/A,,Clear,260,2013-10-04 19:55:00
2:15 PM,49.8,11.1,21,30.08,10.0,West,18.4,32.2,N/A,,Clear,280,2013-10-04 20:15:00
2:35 PM,49.1,7.9,19,30.08,10.0,West,15.0,27.6,N/A,,Clear,270,2013-10-04 20:35:00
2:55 PM,49.3,5.2,17,30.08,10.0,SW,13.8,32.2,N/A,,Clear,230,2013-10-04 20:55:00
3:15 PM,50.0,4.6,16,30.08,10.0,West,17.3,27.6,N/A,,Clear,270,2013-10-04 21:15:00
3:35 PM,49.8,3.2,15,30.09,10.0,West,16.1,34.5,N/A,,Clear,270,2013-10-04 21:35:00
3:55 PM,49.5,3.4,15,30.09,10.0,WSW,18.4,32.2,N/A,,Clear,240,2013-10-04 21:55:00
4:15 PM,49.1,1.2,14,30.10,10.0,West,13.8,26.5,N/A,,Clear,270,2013-10-04 22:15:00
4:35 PM,48.2,-2.0,12,30.11,10.0,West,18.4,32.2,N/A,,Clear,280,2013-10-04 22:35:00
4:55 PM,47.5,-2.7,12,30.12,10.0,West,16.1,29.9,N/A,,Clear,270,2013-10-04 22:55:00
5:15 PM,47.1,-0.6,14,30.12,10.0,WSW,13.8,24.2,N/A,,Clear,250,2013-10-04 23:15:00
5:35 PM,46.2,-0.4,14,30.14,10.0,West,16.1,21.9,N/A,,Clear,270,2013-10-04 23:35:00
5:55 PM,44.8,-1.8,14,30.14,10.0,WSW,11.5,20.7,N/A,,Clear,250,2013-10-04 23:55:00
6:15 PM,43.9,-1.1,15,30.15,10.0,WSW,9.2,18.4,N/A,,Clear,250,2013-10-05 00:15:00
6:35 PM,41.2,1.9,20,30.16,10.0,SW,4.6,-,N/A,,Clear,220,2013-10-05 00:35:00
6:55 PM,39.7,-0.2,19,30.16,10.0,South,4.6,-,N/A,,Clear,190,2013-10-05 00:55:00
7:15 PM,38.1,0.5,21,30.16,10.0,SW,4.6,-,N/A,,Clear,220,2013-10-05 01:15:00
7:35 PM,32.2,6.6,34,30.17,10.0,Calm,Calm,-,N/A,,Clear,0,2013-10-05 01:35:00
7:55 PM,30.9,6.8,36,30.18,10.0,Calm,Calm,-,N/A,,Clear,0,2013-10-05 01:55:00
8:15 PM,28.8,8.1,42,30.18,10.0,Calm,Calm,-,N/A,,Clear,0,2013-10-05 02:15:00
8:35 PM,27.9,9.0,45,30.19,10.0,Calm,Calm,-,N/A,,Clear,0,2013-10-05 02:35:00
8:55 PM,27.0,8.8,46,30.21,10.0,SW,4.6,-,N/A,,Clear,220,2013-10-05 02:55:00
9:15 PM,26.6,9.1,48,30.21,10.0,Calm,Calm,-,N/A,,Clear,0,2013-10-05 03:15:00
9:35 PM,27.7,9.1,46,30.22,10.0,SE,3.5,-,N/A,,Clear,140,2013-10-05 03:35:00
9:55 PM,26.8,10.0,49,30.21,10.0,Calm,Calm,-,N/A,,Clear,0,2013-10-05 03:55:00
10:15 PM,26.2,10.6,52,30.21,10.0,Calm,Calm,-,N/A,,Clear,0,2013-10-05 04:15:00
10:35 PM,25.9,11.1,54,30.21,10.0,Calm,Calm,-,N/A,,Clear,0,2013-10-05 04:35:00
10:55 PM,25.9,11.3,54,30.21,10.0,Calm,Calm,-,N/A,,Scattered Clouds,0,2013-10-05 04:55:00
11:15 PM,27.9,12.6,53,30.21,10.0,Calm,Calm,-,N/A,,Mostly Cloudy,0,2013-10-05 05:15:00
11:35 PM,28.8,12.2,50,30.20,10.0,Calm,Calm,-,N/A,,Mostly Cloudy,0,2013-10-05 05:35:00
11:55 PM,28.0,13.3,54,30.20,10.0,Calm,Calm,-,N/A,,Mostly Cloudy,0,2013-10-05 05:55:00